sensor_id;sensor_type;location;lat;lon;timestamp;P1;durP1;ratioP1;P2;durP2;ratioP2
35606;SDS011;21729;58.392;15.656;2022-12-07T00:01:04;5.97;;;2.60;;
35606;SDS011;21729;58.392;15.656;2022-12-07T00:03:32;5.53;;;2.92;;
35606;SDS011;21729;58.392;15.656;2022-12-07T00:05:59;4.63;;;3.00;;
35606;SDS011;21729;58.392;15.656;2022-12-07T00:08:26;5.32;;;3.10;;
35606;SDS011;21729;58.392;15.656;2022-12-07T00:10:55;5.00;;;3.13;;
35606;SDS011;21729;58.392;15.656;2022-12-07T00:13:26;4.03;;;2.78;;
35606;SDS011;21729;58.392;15.656;2022-12-07T00:15:53;7.55;;;3.10;;
35606;SDS011;21729;58.392;15.656;2022-12-07T00:18:20;6.60;;;3.85;;
35606;SDS011;21729;58.392;15.656;2022-12-07T00:20:47;7.40;;;3.50;;
35606;SDS011;21729;58.392;15.656;2022-12-07T00:23:14;7.03;;;3.13;;
35606;SDS011;21729;58.392;15.656;2022-12-07T00:25:44;5.40;;;2.78;;
35606;SDS011;21729;58.392;15.656;2022-12-07T00:28:14;5.50;;;2.95;;
35606;SDS011;21729;58.392;15.656;2022-12-07T00:30:41;6.30;;;2.90;;
35606;SDS011;21729;58.392;15.656;2022-12-07T00:33:08;4.65;;;2.80;;
35606;SDS011;21729;58.392;15.656;2022-12-07T00:35:35;5.45;;;2.83;;
35606;SDS011;21729;58.392;15.656;2022-12-07T00:38:02;5.75;;;2.90;;
35606;SDS011;21729;58.392;15.656;2022-12-07T00:40:29;6.03;;;2.65;;
35606;SDS011;21729;58.392;15.656;2022-12-07T00:42:56;5.78;;;3.00;;
35606;SDS011;21729;58.392;15.656;2022-12-07T00:45:25;5.82;;;2.80;;
35606;SDS011;21729;58.392;15.656;2022-12-07T00:47:54;5.25;;;3.13;;
35606;SDS011;21729;58.392;15.656;2022-12-07T00:50:21;5.97;;;3.03;;
35606;SDS011;21729;58.392;15.656;2022-12-07T00:52:48;5.45;;;2.70;;
35606;SDS011;21729;58.392;15.656;2022-12-07T00:55:15;7.25;;;3.20;;
35606;SDS011;21729;58.392;15.656;2022-12-07T00:57:42;5.53;;;2.70;;
35606;SDS011;21729;58.392;15.656;2022-12-07T01:00:09;6.57;;;3.05;;
35606;SDS011;21729;58.392;15.656;2022-12-07T01:02:38;4.13;;;2.70;;
35606;SDS011;21729;58.392;15.656;2022-12-07T01:05:06;4.25;;;2.90;;
35606;SDS011;21729;58.392;15.656;2022-12-07T01:07:33;4.75;;;3.03;;
35606;SDS011;21729;58.392;15.656;2022-12-07T01:10:00;5.82;;;2.95;;
35606;SDS011;21729;58.392;15.656;2022-12-07T01:12:27;6.20;;;3.15;;
35606;SDS011;21729;58.392;15.656;2022-12-07T01:14:54;7.50;;;2.95;;
35606;SDS011;21729;58.392;15.656;2022-12-07T01:17:21;6.35;;;2.92;;
35606;SDS011;21729;58.392;15.656;2022-12-07T01:19:50;5.93;;;2.90;;
35606;SDS011;21729;58.392;15.656;2022-12-07T01:22:17;6.93;;;3.03;;
35606;SDS011;21729;58.392;15.656;2022-12-07T01:24:44;4.80;;;2.72;;
35606;SDS011;21729;58.392;15.656;2022-12-07T01:27:12;5.35;;;2.88;;
35606;SDS011;21729;58.392;15.656;2022-12-07T01:29:39;6.32;;;2.92;;
35606;SDS011;21729;58.392;15.656;2022-12-07T01:32:06;4.80;;;2.92;;
35606;SDS011;21729;58.392;15.656;2022-12-07T01:34:33;5.63;;;3.17;;
35606;SDS011;21729;58.392;15.656;2022-12-07T01:37:02;6.72;;;3.67;;
35606;SDS011;21729;58.392;15.656;2022-12-07T01:39:29;4.97;;;3.60;;
35606;SDS011;21729;58.392;15.656;2022-12-07T01:41:56;6.13;;;3.30;;
35606;SDS011;21729;58.392;15.656;2022-12-07T01:44:23;6.77;;;3.53;;
35606;SDS011;21729;58.392;15.656;2022-12-07T01:46:52;6.75;;;3.50;;
35606;SDS011;21729;58.392;15.656;2022-12-07T01:49:28;6.68;;;3.08;;
35606;SDS011;21729;58.392;15.656;2022-12-07T01:52:01;5.25;;;3.13;;
35606;SDS011;21729;58.392;15.656;2022-12-07T01:54:36;6.15;;;3.38;;
35606;SDS011;21729;58.392;15.656;2022-12-07T01:57:03;5.80;;;3.10;;
35606;SDS011;21729;58.392;15.656;2022-12-07T01:59:32;6.43;;;3.47;;
35606;SDS011;21729;58.392;15.656;2022-12-07T02:02:00;6.45;;;3.30;;
35606;SDS011;21729;58.392;15.656;2022-12-07T02:04:30;5.43;;;3.22;;
35606;SDS011;21729;58.392;15.656;2022-12-07T02:06:57;7.35;;;3.13;;
35606;SDS011;21729;58.392;15.656;2022-12-07T02:09:26;5.53;;;3.50;;
35606;SDS011;21729;58.392;15.656;2022-12-07T02:11:53;5.90;;;2.95;;
35606;SDS011;21729;58.392;15.656;2022-12-07T02:14:21;4.97;;;3.13;;
35606;SDS011;21729;58.392;15.656;2022-12-07T02:16:51;5.25;;;3.00;;
35606;SDS011;21729;58.392;15.656;2022-12-07T02:22:38;5.22;;;2.90;;
35606;SDS011;21729;58.392;15.656;2022-12-07T02:25:21;8.75;;;3.33;;
35606;SDS011;21729;58.392;15.656;2022-12-07T02:27:58;6.45;;;3.28;;
35606;SDS011;21729;58.392;15.656;2022-12-07T02:30:33;6.10;;;3.00;;
35606;SDS011;21729;58.392;15.656;2022-12-07T02:33:07;6.82;;;2.97;;
35606;SDS011;21729;58.392;15.656;2022-12-07T02:35:39;4.22;;;2.83;;
35606;SDS011;21729;58.392;15.656;2022-12-07T02:38:11;5.70;;;3.00;;
35606;SDS011;21729;58.392;15.656;2022-12-07T02:40:43;4.63;;;2.73;;
35606;SDS011;21729;58.392;15.656;2022-12-07T02:43:14;6.75;;;3.08;;
35606;SDS011;21729;58.392;15.656;2022-12-07T02:45:46;6.45;;;3.00;;
35606;SDS011;21729;58.392;15.656;2022-12-07T02:48:16;5.63;;;2.90;;
35606;SDS011;21729;58.392;15.656;2022-12-07T02:50:45;5.50;;;3.10;;
35606;SDS011;21729;58.392;15.656;2022-12-07T02:53:31;5.68;;;2.90;;
35606;SDS011;21729;58.392;15.656;2022-12-07T02:56:00;5.32;;;3.00;;
35606;SDS011;21729;58.392;15.656;2022-12-07T02:58:40;4.87;;;3.00;;
35606;SDS011;21729;58.392;15.656;2022-12-07T03:01:20;5.80;;;3.03;;
35606;SDS011;21729;58.392;15.656;2022-12-07T03:03:56;4.88;;;3.10;;
35606;SDS011;21729;58.392;15.656;2022-12-07T03:06:30;6.82;;;3.10;;
35606;SDS011;21729;58.392;15.656;2022-12-07T03:09:02;4.82;;;3.08;;
35606;SDS011;21729;58.392;15.656;2022-12-07T03:11:37;7.30;;;3.08;;
35606;SDS011;21729;58.392;15.656;2022-12-07T03:14:11;5.15;;;2.83;;
35606;SDS011;21729;58.392;15.656;2022-12-07T03:16:45;6.45;;;3.05;;
35606;SDS011;21729;58.392;15.656;2022-12-07T03:19:20;5.03;;;2.97;;
35606;SDS011;21729;58.392;15.656;2022-12-07T03:21:49;3.90;;;3.00;;
35606;SDS011;21729;58.392;15.656;2022-12-07T03:24:22;6.95;;;3.40;;
35606;SDS011;21729;58.392;15.656;2022-12-07T03:26:56;5.40;;;2.90;;
35606;SDS011;21729;58.392;15.656;2022-12-07T03:29:30;5.32;;;3.08;;
35606;SDS011;21729;58.392;15.656;2022-12-07T03:32:02;4.50;;;2.95;;
35606;SDS011;21729;58.392;15.656;2022-12-07T03:34:33;6.55;;;3.60;;
35606;SDS011;21729;58.392;15.656;2022-12-07T03:37:04;6.68;;;3.28;;
35606;SDS011;21729;58.392;15.656;2022-12-07T03:39:36;6.87;;;3.20;;
35606;SDS011;21729;58.392;15.656;2022-12-07T03:42:07;6.88;;;3.30;;
35606;SDS011;21729;58.392;15.656;2022-12-07T03:44:36;7.38;;;3.33;;
35606;SDS011;21729;58.392;15.656;2022-12-07T03:47:06;5.70;;;3.30;;
35606;SDS011;21729;58.392;15.656;2022-12-07T03:49:40;8.77;;;3.78;;
35606;SDS011;21729;58.392;15.656;2022-12-07T03:52:12;6.60;;;3.50;;
35606;SDS011;21729;58.392;15.656;2022-12-07T03:54:48;5.57;;;3.40;;
35606;SDS011;21729;58.392;15.656;2022-12-07T03:57:22;7.38;;;3.58;;
35606;SDS011;21729;58.392;15.656;2022-12-07T03:59:51;5.47;;;3.07;;
35606;SDS011;21729;58.392;15.656;2022-12-07T04:02:22;4.82;;;3.10;;
35606;SDS011;21729;58.392;15.656;2022-12-07T04:04:51;7.20;;;2.95;;
35606;SDS011;21729;58.392;15.656;2022-12-07T04:07:18;5.27;;;3.10;;
35606;SDS011;21729;58.392;15.656;2022-12-07T04:09:45;4.82;;;3.10;;
35606;SDS011;21729;58.392;15.656;2022-12-07T04:12:12;5.80;;;2.83;;
35606;SDS011;21729;58.392;15.656;2022-12-07T04:14:39;5.93;;;3.08;;
35606;SDS011;21729;58.392;15.656;2022-12-07T04:17:06;5.05;;;2.85;;
35606;SDS011;21729;58.392;15.656;2022-12-07T04:19:35;6.07;;;2.97;;
35606;SDS011;21729;58.392;15.656;2022-12-07T04:22:03;5.03;;;2.92;;
35606;SDS011;21729;58.392;15.656;2022-12-07T04:24:31;6.67;;;2.90;;
35606;SDS011;21729;58.392;15.656;2022-12-07T04:26:58;4.60;;;2.80;;
35606;SDS011;21729;58.392;15.656;2022-12-07T04:29:26;5.13;;;2.90;;
35606;SDS011;21729;58.392;15.656;2022-12-07T04:31:53;6.88;;;3.03;;
35606;SDS011;21729;58.392;15.656;2022-12-07T04:34:20;4.93;;;2.90;;
35606;SDS011;21729;58.392;15.656;2022-12-07T04:36:49;5.05;;;2.67;;
35606;SDS011;21729;58.392;15.656;2022-12-07T04:39:18;6.18;;;2.83;;
35606;SDS011;21729;58.392;15.656;2022-12-07T04:41:47;5.75;;;3.03;;
35606;SDS011;21729;58.392;15.656;2022-12-07T04:44:14;6.03;;;3.42;;
35606;SDS011;21729;58.392;15.656;2022-12-07T04:46:42;5.43;;;3.05;;
35606;SDS011;21729;58.392;15.656;2022-12-07T04:49:10;5.18;;;3.25;;
35606;SDS011;21729;58.392;15.656;2022-12-07T04:51:38;5.43;;;2.92;;
35606;SDS011;21729;58.392;15.656;2022-12-07T04:54:07;7.00;;;3.20;;
35606;SDS011;21729;58.392;15.656;2022-12-07T04:56:34;5.97;;;3.28;;
35606;SDS011;21729;58.392;15.656;2022-12-07T04:59:01;6.88;;;3.08;;
35606;SDS011;21729;58.392;15.656;2022-12-07T05:01:29;5.28;;;2.80;;
35606;SDS011;21729;58.392;15.656;2022-12-07T05:03:56;7.57;;;2.75;;
35606;SDS011;21729;58.392;15.656;2022-12-07T05:06:24;7.03;;;2.38;;
35606;SDS011;21729;58.392;15.656;2022-12-07T05:08:51;4.82;;;2.25;;
35606;SDS011;21729;58.392;15.656;2022-12-07T05:11:20;4.28;;;2.50;;
35606;SDS011;21729;58.392;15.656;2022-12-07T05:14:06;4.90;;;2.42;;
35606;SDS011;21729;58.392;15.656;2022-12-07T05:16:36;4.35;;;2.28;;
35606;SDS011;21729;58.392;15.656;2022-12-07T05:19:03;5.27;;;2.07;;
35606;SDS011;21729;58.392;15.656;2022-12-07T05:21:31;5.20;;;2.40;;
35606;SDS011;21729;58.392;15.656;2022-12-07T05:23:58;5.55;;;2.20;;
35606;SDS011;21729;58.392;15.656;2022-12-07T05:26:27;5.22;;;2.53;;
35606;SDS011;21729;58.392;15.656;2022-12-07T05:28:55;4.50;;;2.30;;
35606;SDS011;21729;58.392;15.656;2022-12-07T05:31:24;5.65;;;2.30;;
35606;SDS011;21729;58.392;15.656;2022-12-07T05:33:51;4.28;;;2.47;;
35606;SDS011;21729;58.392;15.656;2022-12-07T05:36:19;4.50;;;2.30;;
35606;SDS011;21729;58.392;15.656;2022-12-07T05:38:46;5.75;;;2.47;;
35606;SDS011;21729;58.392;15.656;2022-12-07T05:41:14;4.53;;;2.40;;
35606;SDS011;21729;58.392;15.656;2022-12-07T05:44:02;3.77;;;2.43;;
35606;SDS011;21729;58.392;15.656;2022-12-07T05:46:29;5.18;;;2.65;;
35606;SDS011;21729;58.392;15.656;2022-12-07T05:48:56;4.25;;;2.50;;
35606;SDS011;21729;58.392;15.656;2022-12-07T05:51:23;5.18;;;2.67;;
35606;SDS011;21729;58.392;15.656;2022-12-07T05:53:50;4.72;;;2.30;;
35606;SDS011;21729;58.392;15.656;2022-12-07T05:56:17;4.53;;;2.55;;
35606;SDS011;21729;58.392;15.656;2022-12-07T05:58:44;7.28;;;2.70;;
35606;SDS011;21729;58.392;15.656;2022-12-07T06:01:31;6.10;;;2.88;;
35606;SDS011;21729;58.392;15.656;2022-12-07T06:03:58;5.93;;;2.88;;
35606;SDS011;21729;58.392;15.656;2022-12-07T06:06:25;7.50;;;2.75;;
35606;SDS011;21729;58.392;15.656;2022-12-07T06:08:52;5.45;;;2.95;;
35606;SDS011;21729;58.392;15.656;2022-12-07T06:11:19;5.43;;;2.67;;
35606;SDS011;21729;58.392;15.656;2022-12-07T06:14:04;5.88;;;3.00;;
35606;SDS011;21729;58.392;15.656;2022-12-07T06:16:32;8.23;;;3.05;;
35606;SDS011;21729;58.392;15.656;2022-12-07T06:18:59;6.20;;;3.00;;
35606;SDS011;21729;58.392;15.656;2022-12-07T06:21:26;4.55;;;2.97;;
35606;SDS011;21729;58.392;15.656;2022-12-07T06:23:54;5.07;;;3.13;;
35606;SDS011;21729;58.392;15.656;2022-12-07T06:26:21;9.18;;;3.45;;
35606;SDS011;21729;58.392;15.656;2022-12-07T06:28:48;8.48;;;4.72;;
35606;SDS011;21729;58.392;15.656;2022-12-07T06:31:15;12.02;;;6.53;;
35606;SDS011;21729;58.392;15.656;2022-12-07T06:33:44;11.23;;;6.68;;
35606;SDS011;21729;58.392;15.656;2022-12-07T06:36:11;11.27;;;5.00;;
35606;SDS011;21729;58.392;15.656;2022-12-07T06:38:38;8.73;;;5.53;;
35606;SDS011;21729;58.392;15.656;2022-12-07T06:41:05;10.63;;;5.05;;
35606;SDS011;21729;58.392;15.656;2022-12-07T06:43:32;11.98;;;5.70;;
35606;SDS011;21729;58.392;15.656;2022-12-07T06:46:00;9.95;;;4.30;;
35606;SDS011;21729;58.392;15.656;2022-12-07T06:48:27;8.07;;;3.55;;
35606;SDS011;21729;58.392;15.656;2022-12-07T06:50:55;8.40;;;3.80;;
35606;SDS011;21729;58.392;15.656;2022-12-07T06:53:22;8.15;;;4.70;;
35606;SDS011;21729;58.392;15.656;2022-12-07T06:55:49;7.43;;;4.22;;
35606;SDS011;21729;58.392;15.656;2022-12-07T06:58:17;8.03;;;4.23;;
35606;SDS011;21729;58.392;15.656;2022-12-07T07:00:44;6.65;;;3.28;;
35606;SDS011;21729;58.392;15.656;2022-12-07T07:03:12;8.68;;;3.70;;
35606;SDS011;21729;58.392;15.656;2022-12-07T07:05:39;5.65;;;3.20;;
35606;SDS011;21729;58.392;15.656;2022-12-07T07:08:07;6.93;;;3.38;;
35606;SDS011;21729;58.392;15.656;2022-12-07T07:10:34;6.37;;;2.90;;
35606;SDS011;21729;58.392;15.656;2022-12-07T07:13:02;6.15;;;2.97;;
35606;SDS011;21729;58.392;15.656;2022-12-07T07:15:29;6.75;;;3.10;;
35606;SDS011;21729;58.392;15.656;2022-12-07T07:17:57;4.78;;;2.70;;
35606;SDS011;21729;58.392;15.656;2022-12-07T07:20:24;5.13;;;2.47;;
35606;SDS011;21729;58.392;15.656;2022-12-07T07:22:53;4.53;;;3.05;;
35606;SDS011;21729;58.392;15.656;2022-12-07T07:25:22;7.22;;;2.92;;
35606;SDS011;21729;58.392;15.656;2022-12-07T07:27:49;6.20;;;3.10;;
35606;SDS011;21729;58.392;15.656;2022-12-07T07:30:16;4.82;;;2.97;;
35606;SDS011;21729;58.392;15.656;2022-12-07T07:32:43;5.95;;;3.00;;
35606;SDS011;21729;58.392;15.656;2022-12-07T07:35:10;4.40;;;2.83;;
35606;SDS011;21729;58.392;15.656;2022-12-07T07:37:39;5.10;;;2.77;;
35606;SDS011;21729;58.392;15.656;2022-12-07T07:40:07;5.88;;;2.83;;
35606;SDS011;21729;58.392;15.656;2022-12-07T07:42:36;7.13;;;2.72;;
35606;SDS011;21729;58.392;15.656;2022-12-07T07:45:03;5.32;;;2.80;;
35606;SDS011;21729;58.392;15.656;2022-12-07T07:47:31;4.70;;;3.00;;
35606;SDS011;21729;58.392;15.656;2022-12-07T07:49:58;6.72;;;2.80;;
35606;SDS011;21729;58.392;15.656;2022-12-07T07:52:25;5.85;;;3.15;;
35606;SDS011;21729;58.392;15.656;2022-12-07T07:54:55;5.75;;;2.72;;
35606;SDS011;21729;58.392;15.656;2022-12-07T07:57:22;7.40;;;3.10;;
35606;SDS011;21729;58.392;15.656;2022-12-07T07:59:51;6.60;;;2.77;;
35606;SDS011;21729;58.392;15.656;2022-12-07T08:02:18;5.97;;;2.60;;
35606;SDS011;21729;58.392;15.656;2022-12-07T08:04:47;6.65;;;2.78;;
35606;SDS011;21729;58.392;15.656;2022-12-07T08:07:14;4.53;;;2.60;;
35606;SDS011;21729;58.392;15.656;2022-12-07T08:09:41;6.50;;;2.50;;
35606;SDS011;21729;58.392;15.656;2022-12-07T08:12:08;4.83;;;2.53;;
35606;SDS011;21729;58.392;15.656;2022-12-07T08:14:35;4.35;;;2.35;;
35606;SDS011;21729;58.392;15.656;2022-12-07T08:17:04;5.55;;;2.67;;
35606;SDS011;21729;58.392;15.656;2022-12-07T08:19:31;5.78;;;2.70;;
35606;SDS011;21729;58.392;15.656;2022-12-07T08:21:59;5.28;;;2.45;;
35606;SDS011;21729;58.392;15.656;2022-12-07T08:24:26;5.90;;;2.40;;
35606;SDS011;21729;58.392;15.656;2022-12-07T08:26:53;6.85;;;2.70;;
35606;SDS011;21729;58.392;15.656;2022-12-07T08:29:21;6.32;;;2.40;;
35606;SDS011;21729;58.392;15.656;2022-12-07T08:31:48;4.70;;;2.50;;
35606;SDS011;21729;58.392;15.656;2022-12-07T08:34:16;6.93;;;2.78;;
35606;SDS011;21729;58.392;15.656;2022-12-07T08:36:43;7.60;;;2.50;;
35606;SDS011;21729;58.392;15.656;2022-12-07T08:39:10;5.30;;;2.20;;
35606;SDS011;21729;58.392;15.656;2022-12-07T08:41:37;7.60;;;2.50;;
35606;SDS011;21729;58.392;15.656;2022-12-07T08:44:05;4.63;;;2.17;;
35606;SDS011;21729;58.392;15.656;2022-12-07T08:46:32;4.28;;;2.10;;
35606;SDS011;21729;58.392;15.656;2022-12-07T08:49:03;4.80;;;2.50;;
35606;SDS011;21729;58.392;15.656;2022-12-07T08:51:36;4.10;;;2.60;;
35606;SDS011;21729;58.392;15.656;2022-12-07T08:54:05;5.82;;;2.30;;
35606;SDS011;21729;58.392;15.656;2022-12-07T08:56:33;4.60;;;2.35;;
35606;SDS011;21729;58.392;15.656;2022-12-07T08:59:01;7.82;;;2.53;;
35606;SDS011;21729;58.392;15.656;2022-12-07T09:01:28;5.05;;;2.30;;
35606;SDS011;21729;58.392;15.656;2022-12-07T09:03:55;3.23;;;2.50;;
35606;SDS011;21729;58.392;15.656;2022-12-07T09:06:22;7.37;;;2.63;;
35606;SDS011;21729;58.392;15.656;2022-12-07T09:08:51;4.38;;;2.63;;
35606;SDS011;21729;58.392;15.656;2022-12-07T09:11:23;4.80;;;2.30;;
35606;SDS011;21729;58.392;15.656;2022-12-07T09:13:51;5.63;;;2.50;;
35606;SDS011;21729;58.392;15.656;2022-12-07T09:16:18;4.80;;;2.30;;
35606;SDS011;21729;58.392;15.656;2022-12-07T09:18:45;4.77;;;2.43;;
35606;SDS011;21729;58.392;15.656;2022-12-07T09:21:12;3.85;;;2.20;;
35606;SDS011;21729;58.392;15.656;2022-12-07T09:23:39;3.78;;;2.05;;
35606;SDS011;21729;58.392;15.656;2022-12-07T09:26:09;3.22;;;1.90;;
35606;SDS011;21729;58.392;15.656;2022-12-07T09:28:36;3.65;;;2.17;;
35606;SDS011;21729;58.392;15.656;2022-12-07T09:31:03;2.92;;;1.90;;
35606;SDS011;21729;58.392;15.656;2022-12-07T09:33:31;4.13;;;2.25;;
35606;SDS011;21729;58.392;15.656;2022-12-07T09:35:58;4.55;;;2.17;;
35606;SDS011;21729;58.392;15.656;2022-12-07T09:38:25;3.58;;;2.30;;
35606;SDS011;21729;58.392;15.656;2022-12-07T09:40:53;3.10;;;2.72;;
35606;SDS011;21729;58.392;15.656;2022-12-07T09:43:23;5.35;;;2.72;;
35606;SDS011;21729;58.392;15.656;2022-12-07T09:45:51;3.97;;;2.50;;
35606;SDS011;21729;58.392;15.656;2022-12-07T09:48:21;5.65;;;2.80;;
35606;SDS011;21729;58.392;15.656;2022-12-07T09:50:50;4.57;;;2.60;;
35606;SDS011;21729;58.392;15.656;2022-12-07T09:53:23;2.60;;;2.00;;
35606;SDS011;21729;58.392;15.656;2022-12-07T09:55:53;3.72;;;2.00;;
35606;SDS011;21729;58.392;15.656;2022-12-07T09:58:21;3.95;;;2.30;;
35606;SDS011;21729;58.392;15.656;2022-12-07T10:00:52;4.00;;;2.30;;
35606;SDS011;21729;58.392;15.656;2022-12-07T10:03:21;4.70;;;2.40;;
35606;SDS011;21729;58.392;15.656;2022-12-07T10:05:49;6.60;;;2.60;;
35606;SDS011;21729;58.392;15.656;2022-12-07T10:08:17;5.90;;;2.50;;
35606;SDS011;21729;58.392;15.656;2022-12-07T10:10:45;3.33;;;2.10;;
35606;SDS011;21729;58.392;15.656;2022-12-07T10:13:16;8.75;;;2.10;;
35606;SDS011;21729;58.392;15.656;2022-12-07T10:15:49;10.52;;;2.03;;
35606;SDS011;21729;58.392;15.656;2022-12-07T10:18:28;5.65;;;1.90;;
35606;SDS011;21729;58.392;15.656;2022-12-07T10:21:05;3.45;;;1.80;;
35606;SDS011;21729;58.392;15.656;2022-12-07T10:23:41;4.07;;;2.03;;
35606;SDS011;21729;58.392;15.656;2022-12-07T10:26:29;5.07;;;1.83;;
35606;SDS011;21729;58.392;15.656;2022-12-07T10:28:59;3.15;;;2.10;;
35606;SDS011;21729;58.392;15.656;2022-12-07T10:31:29;6.38;;;2.28;;
35606;SDS011;21729;58.392;15.656;2022-12-07T10:33:57;2.97;;;2.10;;
35606;SDS011;21729;58.392;15.656;2022-12-07T10:36:26;4.07;;;2.13;;
35606;SDS011;21729;58.392;15.656;2022-12-07T10:39:02;8.18;;;2.30;;
35606;SDS011;21729;58.392;15.656;2022-12-07T10:41:38;14.73;;;2.90;;
35606;SDS011;21729;58.392;15.656;2022-12-07T10:44:21;3.85;;;2.30;;
35606;SDS011;21729;58.392;15.656;2022-12-07T10:52:57;3.30;;;2.10;;
35606;SDS011;21729;58.392;15.656;2022-12-07T10:55:46;4.97;;;2.30;;
35606;SDS011;21729;58.392;15.656;2022-12-07T10:58:31;5.03;;;2.30;;
35606;SDS011;21729;58.392;15.656;2022-12-07T11:01:13;6.97;;;2.40;;
35606;SDS011;21729;58.392;15.656;2022-12-07T11:03:57;4.80;;;2.40;;
35606;SDS011;21729;58.392;15.656;2022-12-07T11:06:37;6.53;;;2.70;;
35606;SDS011;21729;58.392;15.656;2022-12-07T11:09:25;7.30;;;2.45;;
35606;SDS011;21729;58.392;15.656;2022-12-07T11:12:12;4.25;;;2.35;;
35606;SDS011;21729;58.392;15.656;2022-12-07T11:14:48;4.37;;;2.33;;
35606;SDS011;21729;58.392;15.656;2022-12-07T11:17:23;4.00;;;2.45;;
35606;SDS011;21729;58.392;15.656;2022-12-07T11:20:02;3.67;;;2.28;;
35606;SDS011;21729;58.392;15.656;2022-12-07T11:22:41;4.38;;;1.92;;
35606;SDS011;21729;58.392;15.656;2022-12-07T11:25:17;4.32;;;2.10;;
35606;SDS011;21729;58.392;15.656;2022-12-07T11:27:52;4.03;;;2.17;;
35606;SDS011;21729;58.392;15.656;2022-12-07T11:30:30;5.10;;;1.80;;
35606;SDS011;21729;58.392;15.656;2022-12-07T11:33:08;4.57;;;2.00;;
35606;SDS011;21729;58.392;15.656;2022-12-07T11:35:48;4.47;;;2.05;;
35606;SDS011;21729;58.392;15.656;2022-12-07T11:38:24;3.85;;;1.80;;
35606;SDS011;21729;58.392;15.656;2022-12-07T11:40:59;4.93;;;1.90;;
35606;SDS011;21729;58.392;15.656;2022-12-07T11:43:48;3.95;;;2.08;;
35606;SDS011;21729;58.392;15.656;2022-12-07T11:46:19;4.15;;;1.95;;
35606;SDS011;21729;58.392;15.656;2022-12-07T11:48:54;4.20;;;2.08;;
35606;SDS011;21729;58.392;15.656;2022-12-07T11:51:29;4.30;;;2.30;;
35606;SDS011;21729;58.392;15.656;2022-12-07T11:54:01;7.25;;;2.40;;
35606;SDS011;21729;58.392;15.656;2022-12-07T11:56:31;4.85;;;2.42;;
35606;SDS011;21729;58.392;15.656;2022-12-07T11:59:04;6.38;;;2.30;;
35606;SDS011;21729;58.392;15.656;2022-12-07T12:01:45;4.65;;;2.20;;
35606;SDS011;21729;58.392;15.656;2022-12-07T12:04:28;3.22;;;2.08;;
35606;SDS011;21729;58.392;15.656;2022-12-07T12:07:09;3.13;;;1.90;;
35606;SDS011;21729;58.392;15.656;2022-12-07T12:09:42;5.65;;;1.88;;
35606;SDS011;21729;58.392;15.656;2022-12-07T12:12:29;5.57;;;1.50;;
35606;SDS011;21729;58.392;15.656;2022-12-07T12:15:29;3.50;;;1.80;;
35606;SDS011;21729;58.392;15.656;2022-12-07T12:18:13;4.97;;;1.67;;
35606;SDS011;21729;58.392;15.656;2022-12-07T12:20:55;5.57;;;1.73;;
35606;SDS011;21729;58.392;15.656;2022-12-07T12:23:30;4.50;;;1.90;;
35606;SDS011;21729;58.392;15.656;2022-12-07T12:26:03;5.57;;;1.70;;
35606;SDS011;21729;58.392;15.656;2022-12-07T12:28:35;3.90;;;1.40;;
35606;SDS011;21729;58.392;15.656;2022-12-07T12:31:07;2.63;;;1.42;;
35606;SDS011;21729;58.392;15.656;2022-12-07T12:33:38;3.00;;;1.70;;
35606;SDS011;21729;58.392;15.656;2022-12-07T12:36:17;2.97;;;1.52;;
35606;SDS011;21729;58.392;15.656;2022-12-07T12:38:51;3.00;;;1.60;;
35606;SDS011;21729;58.392;15.656;2022-12-07T12:41:51;4.50;;;1.88;;
35606;SDS011;21729;58.392;15.656;2022-12-07T12:47:52;5.57;;;1.77;;
35606;SDS011;21729;58.392;15.656;2022-12-07T12:50:24;3.08;;;1.80;;
35606;SDS011;21729;58.392;15.656;2022-12-07T12:53:03;3.88;;;1.67;;
35606;SDS011;21729;58.392;15.656;2022-12-07T12:58:49;5.55;;;1.80;;
35606;SDS011;21729;58.392;15.656;2022-12-07T13:01:50;5.03;;;1.70;;
35606;SDS011;21729;58.392;15.656;2022-12-07T13:04:27;7.05;;;2.17;;
35606;SDS011;21729;58.392;15.656;2022-12-07T13:07:10;3.23;;;1.30;;
35606;SDS011;21729;58.392;15.656;2022-12-07T13:09:41;4.68;;;1.20;;
35606;SDS011;21729;58.392;15.656;2022-12-07T13:12:13;3.05;;;1.10;;
35606;SDS011;21729;58.392;15.656;2022-12-07T13:14:56;4.50;;;1.30;;
35606;SDS011;21729;58.392;15.656;2022-12-07T13:23:29;2.07;;;0.93;;
35606;SDS011;21729;58.392;15.656;2022-12-07T13:26:04;2.25;;;1.00;;
35606;SDS011;21729;58.392;15.656;2022-12-07T13:28:51;4.93;;;1.40;;
35606;SDS011;21729;58.392;15.656;2022-12-07T13:36:55;3.23;;;1.30;;
35606;SDS011;21729;58.392;15.656;2022-12-07T13:39:23;3.03;;;1.38;;
35606;SDS011;21729;58.392;15.656;2022-12-07T13:41:52;2.42;;;1.15;;
35606;SDS011;21729;58.392;15.656;2022-12-07T13:44:22;4.88;;;1.20;;
35606;SDS011;21729;58.392;15.656;2022-12-07T13:46:53;4.13;;;1.50;;
35606;SDS011;21729;58.392;15.656;2022-12-07T13:49:27;6.30;;;1.20;;
35606;SDS011;21729;58.392;15.656;2022-12-07T13:52:07;2.13;;;1.15;;
35606;SDS011;21729;58.392;15.656;2022-12-07T13:54:45;1.50;;;1.20;;
35606;SDS011;21729;58.392;15.656;2022-12-07T13:57:14;2.38;;;1.30;;
35606;SDS011;21729;58.392;15.656;2022-12-07T13:59:41;2.95;;;1.08;;
35606;SDS011;21729;58.392;15.656;2022-12-07T14:02:19;4.80;;;1.40;;
35606;SDS011;21729;58.392;15.656;2022-12-07T14:04:48;3.10;;;1.10;;
35606;SDS011;21729;58.392;15.656;2022-12-07T14:07:20;1.17;;;1.08;;
35606;SDS011;21729;58.392;15.656;2022-12-07T14:09:56;2.88;;;1.27;;
35606;SDS011;21729;58.392;15.656;2022-12-07T14:12:25;5.75;;;1.40;;
35606;SDS011;21729;58.392;15.656;2022-12-07T14:14:53;5.55;;;0.98;;
35606;SDS011;21729;58.392;15.656;2022-12-07T14:17:23;3.95;;;1.20;;
35606;SDS011;21729;58.392;15.656;2022-12-07T14:19:51;2.75;;;1.20;;
35606;SDS011;21729;58.392;15.656;2022-12-07T14:22:22;2.90;;;1.17;;
35606;SDS011;21729;58.392;15.656;2022-12-07T14:25:01;2.22;;;1.30;;
35606;SDS011;21729;58.392;15.656;2022-12-07T14:27:47;3.75;;;1.30;;
35606;SDS011;21729;58.392;15.656;2022-12-07T14:30:21;2.65;;;1.40;;
35606;SDS011;21729;58.392;15.656;2022-12-07T14:32:52;4.70;;;1.60;;
35606;SDS011;21729;58.392;15.656;2022-12-07T14:35:21;3.70;;;1.60;;
35606;SDS011;21729;58.392;15.656;2022-12-07T14:37:48;3.75;;;1.40;;
35606;SDS011;21729;58.392;15.656;2022-12-07T14:40:16;2.78;;;1.42;;
35606;SDS011;21729;58.392;15.656;2022-12-07T14:42:45;3.28;;;1.50;;
35606;SDS011;21729;58.392;15.656;2022-12-07T14:45:15;4.07;;;1.70;;
35606;SDS011;21729;58.392;15.656;2022-12-07T14:47:44;5.22;;;1.60;;
35606;SDS011;21729;58.392;15.656;2022-12-07T14:50:14;2.83;;;1.42;;
35606;SDS011;21729;58.392;15.656;2022-12-07T14:52:43;4.80;;;1.77;;
35606;SDS011;21729;58.392;15.656;2022-12-07T14:55:13;3.22;;;1.30;;
35606;SDS011;21729;58.392;15.656;2022-12-07T14:57:45;2.78;;;1.50;;
35606;SDS011;21729;58.392;15.656;2022-12-07T15:00:13;4.07;;;1.30;;
35606;SDS011;21729;58.392;15.656;2022-12-07T15:02:42;4.30;;;1.60;;
35606;SDS011;21729;58.392;15.656;2022-12-07T15:05:09;2.65;;;1.40;;
35606;SDS011;21729;58.392;15.656;2022-12-07T15:07:38;2.60;;;1.40;;
35606;SDS011;21729;58.392;15.656;2022-12-07T15:10:06;3.67;;;1.70;;
35606;SDS011;21729;58.392;15.656;2022-12-07T15:12:39;3.28;;;1.65;;
35606;SDS011;21729;58.392;15.656;2022-12-07T15:15:06;3.63;;;1.70;;
35606;SDS011;21729;58.392;15.656;2022-12-07T15:17:39;3.00;;;1.50;;
35606;SDS011;21729;58.392;15.656;2022-12-07T15:20:08;2.50;;;1.60;;
35606;SDS011;21729;58.392;15.656;2022-12-07T15:22:39;3.38;;;1.70;;